Time;durP1;ratioP1;P1;durP2;ratioP2;P2;SDS_P1;SDS_P2;PMS_P1;PMS_P2;Temp;Humidity;BMP_temperature;BMP_pressure;BME280_temperature;BME280_humidity;BME280_pressure;Samples;Min_cycle;Max_cycle;Signal;HPM_P1;HPM_P2
2021/11/15 00:01:43;;;;;;;82.53;25.52;;;5.50;99.90;;;;;;5083113;28;20056;-67
2021/11/15 00:04:14;;;;;;;99.45;27.27;;;5.50;99.90;;;;;;5083016;28;20086;-66
2021/11/15 00:06:39;;;;;;;74.03;24.73;;;5.50;99.90;;;;;;5082631;28;20504;-67
2021/11/15 00:09:06;;;;;;;159.82;31.17;;;5.60;99.90;;;;;;5083185;28;20079;-66
2021/11/15 00:11:31;;;;;;;58.65;23.73;;;5.50;99.90;;;;;;5083558;28;20078;-67
2021/11/15 00:13:57;;;;;;;181.18;30.33;;;5.60;99.90;;;;;;5083754;28;20036;-65
2021/11/15 00:16:23;;;;;;;84.78;25.88;;;5.50;99.90;;;;;;5082333;28;20044;-65
2021/11/15 00:18:48;;;;;;;199.30;24.98;;;5.60;99.90;;;;;;5080022;28;20045;-65
2021/11/15 00:21:14;;;;;;;246.25;27.98;;;5.50;99.90;;;;;;5083830;28;20036;-66
2021/11/15 00:23:40;;;;;;;;;;;5.50;99.90;;;;;;5089622;28;20051;-66
2021/11/15 00:26:05;;;;;;;91.45;23.15;;;5.40;99.90;;;;;;5084746;28;19931;-66
2021/11/15 00:28:31;;;;;;;275.35;34.72;;;5.40;99.90;;;;;;5079203;28;20127;-66
2021/11/15 00:30:56;;;;;;;;;;;5.30;99.90;;;;;;5081614;28;20036;-66
2021/11/15 00:33:22;;;;;;;101.47;23.00;;;5.40;99.90;;;;;;5089463;28;19923;-66
2021/11/15 00:35:48;;;;;;;61.47;23.13;;;5.40;99.90;;;;;;5088021;28;20032;-67
2021/11/15 00:38:14;;;;;;;108.88;25.23;;;5.40;99.90;;;;;;5081470;28;20044;-66
2021/11/15 00:40:40;;;;;;;85.82;25.65;;;5.40;99.90;;;;;;5070615;28;20416;-66
2021/11/15 00:43:06;;;;;;;105.03;44.95;;;5.30;99.90;;;;;;5087637;28;20179;-66
2021/11/15 00:45:34;;;;;;;83.20;26.00;;;5.40;99.90;;;;;;5078725;28;20148;-64
2021/11/15 00:48:00;;;;;;;56.05;22.20;;;5.40;99.90;;;;;;5080064;28;20111;-65
2021/11/15 00:50:28;;;;;;;90.40;23.73;;;5.40;99.90;;;;;;5076281;28;20043;-64
2021/11/15 00:52:54;;;;;;;100.50;23.98;;;5.40;99.90;;;;;;5066921;28;20543;-64
2021/11/15 00:55:20;;;;;;;74.63;24.92;;;5.40;99.90;;;;;;5067783;28;20036;-64
2021/11/15 00:57:47;;;;;;;93.38;25.45;;;5.40;99.90;;;;;;5068075;28;20944;-64
2021/11/15 01:00:21;;;;;;;94.15;26.88;;;5.40;99.90;;;;;;5068214;28;20040;-64
2021/11/15 01:02:49;;;;;;;109.88;28.63;;;5.40;99.90;;;;;;5073792;28;20468;-64
2021/11/15 01:05:16;;;;;;;87.82;25.58;;;5.40;99.90;;;;;;5080546;28;20028;-64
2021/11/15 01:07:43;;;;;;;191.80;27.15;;;5.30;99.90;;;;;;5083167;28;20040;-64
2021/11/15 01:10:10;;;;;;;77.00;24.10;;;5.30;99.90;;;;;;5080838;28;20044;-63
2021/11/15 01:12:36;;;;;;;160.48;28.92;;;5.30;99.90;;;;;;5077071;28;20040;-63
2021/11/15 01:15:04;;;;;;;74.97;25.33;;;5.30;99.90;;;;;;5069365;28;20037;-63
2021/11/15 01:17:29;;;;;;;48.15;22.50;;;5.30;99.90;;;;;;5068231;28;20040;-63
2021/11/15 01:19:55;;;;;;;296.08;30.05;;;5.30;99.90;;;;;;5067450;28;20036;-63
2021/11/15 01:22:21;;;;;;;196.98;25.20;;;5.40;99.90;;;;;;5068818;28;20296;-63
2021/11/15 01:24:46;;;;;;;;;;;5.40;99.90;;;;;;5069282;28;20484;-63
2021/11/15 01:27:13;;;;;;;230.90;26.92;;;5.40;99.90;;;;;;5068304;28;19928;-63
2021/11/15 01:29:39;;;;;;;377.98;32.85;;;5.40;99.90;;;;;;5067566;28;20048;-63
2021/11/15 01:32:05;;;;;;;372.77;34.35;;;5.40;99.90;;;;;;5068381;28;20047;-63
2021/11/15 01:34:30;;;;;;;148.68;24.98;;;5.30;99.90;;;;;;5067897;28;20087;-63
2021/11/15 01:36:56;;;;;;;398.80;35.78;;;5.30;99.90;;;;;;5067829;28;20662;-63
2021/11/15 01:39:23;;;;;;;205.00;32.55;;;5.30;99.90;;;;;;5076386;28;20125;-63
2021/11/15 01:41:50;;;;;;;369.98;33.78;;;5.30;99.90;;;;;;5068664;28;20037;-63
2021/11/15 01:44:15;;;;;;;310.85;31.85;;;5.30;99.90;;;;;;5068552;28;20411;-63
2021/11/15 01:46:41;;;;;;;232.88;29.48;;;5.30;99.90;;;;;;5067135;28;20044;-63
2021/11/15 01:49:06;;;;;;;667.92;49.75;;;5.30;99.90;;;;;;5079828;28;20055;-63
2021/11/15 01:51:32;;;;;;;308.23;33.05;;;5.30;99.90;;;;;;5088334;28;20481;-63
2021/11/15 01:53:58;;;;;;;168.02;27.00;;;5.30;99.90;;;;;;5080561;28;20636;-64
2021/11/15 01:56:23;;;;;;;;;;;5.30;99.90;;;;;;5071693;28;20059;-63
2021/11/15 01:58:49;;;;;;;323.73;30.95;;;5.30;99.90;;;;;;5067745;28;19939;-62
2021/11/15 02:01:15;;;;;;;174.77;25.45;;;5.30;99.90;;;;;;5066718;28;20032;-63
2021/11/15 02:03:40;;;;;;;;;;;5.30;99.90;;;;;;5067114;28;20051;-64
2021/11/15 02:06:06;;;;;;;598.17;41.65;;;5.30;99.90;;;;;;5068909;28;19931;-63
2021/11/15 02:08:33;;;;;;;264.02;27.85;;;5.30;99.90;;;;;;5075473;28;20032;-63
2021/11/15 02:10:59;;;;;;;243.90;26.83;;;5.30;99.90;;;;;;5074195;28;20059;-63
2021/11/15 02:13:24;;;;;;;104.97;23.02;;;5.30;99.90;;;;;;5068200;28;20488;-63
2021/11/15 02:15:51;;;;;;;572.13;37.75;;;5.30;99.90;;;;;;5066250;28;20041;-63
2021/11/15 02:18:17;;;;;;;283.60;26.25;;;5.30;99.90;;;;;;5076766;28;20044;-62
2021/11/15 02:20:55;;;;;;;178.13;23.40;;;5.20;99.90;;;;;;5067008;28;20036;-63
2021/11/15 02:23:23;;;;;;;343.67;29.85;;;5.20;99.90;;;;;;5076104;28;20036;-64
2021/11/15 02:25:52;;;;;;;356.88;30.33;;;5.30;99.90;;;;;;5075879;28;20147;-63
2021/11/15 02:28:21;;;;;;;361.67;30.77;;;5.20;99.90;;;;;;5067581;28;20050;-64
2021/11/15 02:30:47;;;;;;;394.75;32.38;;;5.10;99.90;;;;;;5076545;28;20117;-63
2021/11/15 02:33:13;;;;;;;236.48;28.00;;;5.20;99.90;;;;;;5086641;28;20694;-63
2021/11/15 02:35:39;;;;;;;338.98;29.35;;;5.10;99.90;;;;;;5086500;28;20043;-63
2021/11/15 02:38:06;;;;;;;142.77;22.85;;;5.10;99.90;;;;;;5076587;28;20127;-63
2021/11/15 02:40:32;;;;;;;219.75;26.33;;;5.10;99.90;;;;;;5086604;28;20040;-63
2021/11/15 02:43:00;;;;;;;158.90;24.98;;;5.10;99.90;;;;;;5075102;28;20051;-63
2021/11/15 02:45:26;;;;;;;357.35;31.92;;;5.10;99.90;;;;;;5066054;28;20052;-63
2021/11/15 02:47:51;;;;;;;176.95;23.15;;;5.10;99.90;;;;;;5068394;28;20496;-63
2021/11/15 02:50:20;;;;;;;383.70;32.83;;;5.20;99.90;;;;;;5087110;28;20076;-64
2021/11/15 02:52:48;;;;;;;537.90;43.20;;;5.20;99.90;;;;;;5087832;28;20121;-64
2021/11/15 02:55:14;;;;;;;210.25;25.50;;;5.20;99.90;;;;;;5089487;28;20225;-64
2021/11/15 02:57:41;;;;;;;338.67;29.83;;;5.20;99.90;;;;;;5087775;28;20040;-65
2021/11/15 03:00:25;;;;;;;294.30;29.73;;;5.30;99.90;;;;;;5085793;28;20035;-64
2021/11/15 03:02:51;;;;;;;57.35;21.05;;;5.30;99.90;;;;;;5082894;28;20408;-64
2021/11/15 03:05:22;;;;;;;155.98;22.67;;;5.30;99.90;;;;;;5087460;28;20090;-64
2021/11/15 03:07:48;;;;;;;277.45;24.45;;;5.30;99.90;;;;;;5080343;28;20035;-64
2021/11/15 03:10:14;;;;;;;430.23;29.33;;;5.30;99.90;;;;;;5087103;28;20036;-64
2021/11/15 03:12:39;;;;;;;555.78;32.88;;;5.30;99.90;;;;;;5087089;28;20048;-64
2021/11/15 03:15:06;;;;;;;312.02;27.08;;;5.30;99.90;;;;;;5086268;28;20143;-64
2021/11/15 03:17:31;;;;;;;183.30;22.67;;;5.20;99.90;;;;;;5086749;28;20047;-65
2021/11/15 03:19:57;;;;;;;482.77;34.50;;;5.20;99.90;;;;;;5086661;28;20111;-65
2021/11/15 03:22:22;;;;;;;246.05;22.75;;;5.20;99.90;;;;;;5086870;28;20033;-65
2021/11/15 03:24:48;;;;;;;327.75;27.67;;;5.20;99.90;;;;;;5087246;28;20040;-65
2021/11/15 03:27:14;;;;;;;330.90;24.80;;;5.20;99.90;;;;;;5084846;28;20040;-65
2021/11/15 03:29:40;;;;;;;428.50;27.92;;;5.20;99.90;;;;;;5086216;28;20040;-65
2021/11/15 03:32:06;;;;;;;833.60;46.45;;;5.20;99.90;;;;;;5086436;28;20075;-65
2021/11/15 03:34:32;;;;;;;524.53;27.52;;;5.10;99.90;;;;;;5086943;28;20092;-65
2021/11/15 03:36:58;;;;;;;569.63;33.28;;;5.10;99.90;;;;;;5083437;28;20055;-65
2021/11/15 03:39:24;;;;;;;364.67;25.92;;;5.10;99.90;;;;;;5083318;28;20040;-65
2021/11/15 03:41:49;;;;;;;553.83;31.52;;;5.00;99.90;;;;;;5085009;28;20502;-65
2021/11/15 03:44:16;;;;;;;658.33;33.30;;;5.00;99.90;;;;;;5085638;28;20039;-65
2021/11/15 03:46:42;;;;;;;396.60;24.00;;;5.00;99.90;;;;;;5085853;28;20047;-65
2021/11/15 03:49:14;;;;;;;649.72;36.13;;;5.00;99.90;;;;;;5086446;28;20619;-65
2021/11/15 03:51:40;;;;;;;494.50;27.02;;;4.90;99.90;;;;;;5086877;28;20081;-65
2021/11/15 03:54:05;;;;;;;539.95;31.60;;;4.80;99.90;;;;;;5089813;28;20044;-65
2021/11/15 03:56:31;;;;;;;256.27;21.58;;;4.90;99.90;;;;;;5090170;28;20476;-64
2021/11/15 03:58:58;;;;;;;189.05;18.23;;;4.80;99.90;;;;;;5089068;28;20445;-65
2021/11/15 04:01:28;;;;;;;558.22;29.77;;;4.80;99.90;;;;;;5068858;28;20033;-65
2021/11/15 04:03:55;;;;;;;272.38;22.38;;;4.80;99.90;;;;;;5066536;28;20118;-65
2021/11/15 04:06:25;;;;;;;491.45;29.98;;;4.80;99.90;;;;;;5064262;28;20048;-64
2021/11/15 04:08:52;;;;;;;163.43;17.45;;;4.80;99.90;;;;;;5062228;28;20032;-65
2021/11/15 04:11:21;;;;;;;469.70;26.38;;;4.80;99.90;;;;;;5054071;28;20126;-64
2021/11/15 04:13:50;;;;;;;550.15;30.30;;;4.80;99.90;;;;;;5050657;28;20373;-64
2021/11/15 04:16:17;;;;;;;455.92;28.60;;;4.80;99.90;;;;;;5049506;28;20048;-64
2021/11/15 04:18:50;;;;;;;137.38;16.77;;;4.70;99.90;;;;;;5050853;28;20059;-65
2021/11/15 04:21:17;;;;;;;425.17;26.00;;;4.70;99.90;;;;;;5050269;28;20037;-64
2021/11/15 04:23:42;;;;;;;301.35;23.13;;;4.70;99.90;;;;;;5050904;28;20559;-64
2021/11/15 04:26:08;;;;;;;276.73;21.08;;;4.70;99.90;;;;;;5049936;28;20041;-64
2021/11/15 04:28:34;;;;;;;546.55;31.00;;;4.70;99.90;;;;;;5048755;28;20079;-64
2021/11/15 04:31:00;;;;;;;233.57;20.25;;;4.70;99.90;;;;;;5051106;28;20039;-64
2021/11/15 04:33:25;;;;;;;382.60;25.80;;;4.60;99.90;;;;;;5059943;28;20064;-64
2021/11/15 04:35:52;;;;;;;88.35;14.98;;;4.60;99.90;;;;;;5050754;28;20412;-64
2021/11/15 04:38:19;;;;;;;160.32;17.98;;;4.60;99.90;;;;;;5054103;28;20144;-64
2021/11/15 04:40:44;;;;;;;158.90;16.45;;;4.60;99.90;;;;;;5050864;28;20557;-64
2021/11/15 04:43:10;;;;;;;467.77;26.70;;;4.60;99.90;;;;;;5057038;28;20108;-64
2021/11/15 04:45:36;;;;;;;302.73;21.27;;;4.70;99.90;;;;;;5061745;28;20102;-64
2021/11/15 04:48:02;;;;;;;284.83;21.55;;;4.60;99.90;;;;;;5070433;28;20032;-64
2021/11/15 04:50:29;;;;;;;274.95;20.83;;;4.60;99.90;;;;;;5068985;28;20036;-64
2021/11/15 04:52:54;;;;;;;241.10;20.10;;;4.60;99.90;;;;;;5069435;28;20032;-64
2021/11/15 04:55:22;;;;;;;393.40;21.98;;;4.60;99.90;;;;;;5069870;28;20539;-64
2021/11/15 04:57:48;;;;;;;289.50;17.98;;;4.60;99.90;;;;;;5068991;28;20037;-64
2021/11/15 05:00:24;;;;;;;402.17;22.42;;;4.60;99.90;;;;;;5069377;28;20040;-64
2021/11/15 05:02:50;;;;;;;278.42;16.98;;;4.60;99.90;;;;;;5069595;28;20440;-64
2021/11/15 05:05:18;;;;;;;357.95;19.92;;;4.60;99.90;;;;;;5069430;28;20052;-64
2021/11/15 05:07:45;;;;;;;310.38;18.20;;;4.50;99.90;;;;;;5069642;28;20052;-65
2021/11/15 05:10:11;;;;;;;336.70;22.80;;;4.50;99.90;;;;;;5069098;28;20721;-64
2021/11/15 05:12:37;;;;;;;313.42;20.17;;;4.50;99.90;;;;;;5069027;28;20033;-65
2021/11/15 05:15:17;;;;;;;254.55;17.85;;;4.50;99.90;;;;;;5069417;28;20519;-65
2021/11/15 05:17:44;;;;;;;439.45;25.65;;;4.50;99.90;;;;;;5067572;28;20093;-65
2021/11/15 05:20:10;;;;;;;130.00;14.57;;;4.40;99.90;;;;;;5069302;28;20079;-65
2021/11/15 05:22:36;;;;;;;235.07;16.65;;;4.50;99.90;;;;;;5068379;28;20510;-65
2021/11/15 05:25:03;;;;;;;233.07;18.90;;;4.50;99.90;;;;;;5068430;28;20056;-64
2021/11/15 05:27:28;;;;;;;355.55;20.50;;;4.50;99.90;;;;;;5067764;28;20037;-65
2021/11/15 05:29:55;;;;;;;204.15;16.00;;;4.50;99.90;;;;;;5068643;28;20503;-65
2021/11/15 05:32:21;;;;;;;165.68;14.50;;;4.50;99.90;;;;;;5086322;28;20047;-65
2021/11/15 05:34:46;;;;;;;294.40;19.48;;;4.50;99.90;;;;;;5087568;28;20063;-64
2021/11/15 05:37:14;;;;;;;469.83;27.50;;;4.50;99.90;;;;;;5083119;28;20438;-65
2021/11/15 05:39:41;;;;;;;331.38;19.65;;;4.40;99.90;;;;;;5087350;28;20051;-65
2021/11/15 05:42:07;;;;;;;327.92;20.65;;;4.40;99.90;;;;;;5088589;28;20423;-65
2021/11/15 05:44:32;;;;;;;351.20;24.40;;;4.40;99.90;;;;;;5088698;28;20036;-65
2021/11/15 05:46:58;;;;;;;217.85;17.70;;;4.40;99.90;;;;;;5087778;28;20135;-65
2021/11/15 05:49:23;;;;;;;198.80;15.68;;;4.40;99.90;;;;;;5088598;28;20391;-64
2021/11/15 05:51:49;;;;;;;169.07;14.15;;;4.40;99.90;;;;;;5088548;28;20066;-65
2021/11/15 05:54:15;;;;;;;88.70;12.30;;;4.40;99.90;;;;;;5088417;28;20047;-65
2021/11/15 05:56:41;;;;;;;262.05;15.95;;;4.40;99.90;;;;;;5087864;28;20044;-64
2021/11/15 05:59:07;;;;;;;266.90;17.63;;;4.50;99.90;;;;;;5087970;28;20032;-65
2021/11/15 06:01:33;;;;;;;751.47;37.22;;;4.40;99.90;;;;;;5088090;28;20043;-65
2021/11/15 06:03:59;;;;;;;199.85;15.68;;;4.30;99.90;;;;;;5070980;28;20048;-65
2021/11/15 06:06:24;;;;;;;550.28;28.48;;;4.20;99.90;;;;;;5081400;28;20050;-64
2021/11/15 06:08:50;;;;;;;224.38;18.60;;;4.20;99.90;;;;;;5080620;28;20032;-65
2021/11/15 06:11:16;;;;;;;320.27;22.70;;;4.20;99.90;;;;;;5087687;28;20036;-64
2021/11/15 06:13:41;;;;;;;114.50;13.93;;;4.20;99.90;;;;;;5087493;28;20040;-64
2021/11/15 06:16:07;;;;;;;195.55;16.58;;;4.30;99.90;;;;;;5086313;28;20168;-65
2021/11/15 06:18:32;;;;;;;652.47;37.38;;;4.30;99.90;;;;;;5087764;28;20039;-65
2021/11/15 06:20:58;;;;;;;353.33;22.08;;;4.40;99.90;;;;;;5087433;28;20043;-65
2021/11/15 06:23:24;;;;;;;747.20;39.10;;;4.40;99.90;;;;;;5088115;28;20043;-65
2021/11/15 06:25:49;;;;;;;317.65;20.08;;;4.30;99.90;;;;;;5085208;28;20044;-65
2021/11/15 06:28:15;;;;;;;475.52;31.27;;;4.30;99.90;;;;;;5085836;28;20036;-65
2021/11/15 06:30:41;;;;;;;440.45;31.38;;;4.20;99.90;;;;;;5087019;28;20063;-65
2021/11/15 06:33:07;;;;;;;311.15;27.02;;;4.20;99.90;;;;;;5087375;28;20044;-65
2021/11/15 06:35:32;;;;;;;141.90;17.60;;;4.10;99.90;;;;;;5087763;28;20036;-65
2021/11/15 06:37:59;;;;;;;181.52;19.58;;;4.10;99.90;;;;;;5080299;28;20039;-64
2021/11/15 06:40:25;;;;;;;127.90;17.65;;;4.10;99.90;;;;;;5088271;28;20113;-64
2021/11/15 06:42:51;;;;;;;298.33;26.45;;;4.20;99.90;;;;;;5088023;28;20043;-64
2021/11/15 06:45:17;;;;;;;108.55;18.73;;;4.20;99.90;;;;;;5087455;28;20120;-65
2021/11/15 06:47:44;;;;;;;73.68;16.30;;;4.20;99.90;;;;;;5087379;28;20140;-64
2021/11/15 06:50:13;;;;;;;105.05;19.13;;;4.20;99.90;;;;;;5087774;28;20070;-64
2021/11/15 06:52:39;;;;;;;137.27;20.42;;;4.10;99.90;;;;;;5087777;28;20717;-65
2021/11/15 06:55:05;;;;;;;112.75;20.35;;;4.10;99.90;;;;;;5087743;28;20135;-65
2021/11/15 06:57:31;;;;;;;118.95;19.83;;;4.10;99.90;;;;;;5086979;28;20570;-65
2021/11/15 06:59:58;;;;;;;167.63;24.17;;;4.10;99.90;;;;;;5085323;28;20157;-65
2021/11/15 07:02:24;;;;;;;88.95;19.70;;;4.10;99.90;;;;;;5081899;28;20044;-65
2021/11/15 07:04:50;;;;;;;95.43;20.15;;;4.10;99.90;;;;;;5067888;28;20067;-65
2021/11/15 07:07:16;;;;;;;90.53;20.50;;;4.10;99.90;;;;;;5066995;28;20049;-65
2021/11/15 07:09:46;;;;;;;120.45;20.23;;;4.20;99.90;;;;;;5083063;28;20034;-64
2021/11/15 07:12:12;;;;;;;183.13;24.50;;;4.20;99.90;;;;;;5080194;28;20043;-64
2021/11/15 07:14:39;;;;;;;72.68;18.30;;;4.20;99.90;;;;;;5085289;28;20040;-65
2021/11/15 07:17:04;;;;;;;47.85;17.95;;;4.10;99.90;;;;;;5076972;28;20452;-64
2021/11/15 07:19:31;;;;;;;46.40;15.57;;;4.20;99.90;;;;;;5083824;28;20123;-64
2021/11/15 07:21:56;;;;;;;78.35;17.70;;;4.20;99.90;;;;;;5084185;28;20047;-64
2021/11/15 07:24:22;;;;;;;55.53;18.50;;;4.10;99.90;;;;;;5075716;28;20812;-64
2021/11/15 07:26:48;;;;;;;53.63;16.55;;;4.00;99.90;;;;;;5085350;28;20040;-64
2021/11/15 07:29:14;;;;;;;37.75;15.07;;;4.00;99.90;;;;;;5080915;28;20070;-64
2021/11/15 07:31:40;;;;;;;53.97;18.15;;;4.00;99.90;;;;;;5082424;28;20035;-64
2021/11/15 07:34:06;;;;;;;57.78;18.48;;;4.00;99.90;;;;;;5090534;28;20044;-64
2021/11/15 07:36:32;;;;;;;55.20;18.15;;;4.00;99.90;;;;;;5084859;28;20430;-64
2021/11/15 07:38:58;;;;;;;45.83;18.45;;;4.10;99.90;;;;;;5079340;28;20755;-64
2021/11/15 07:41:24;;;;;;;36.38;16.15;;;4.10;99.90;;;;;;5074351;28;20237;-64
2021/11/15 07:43:50;;;;;;;73.78;18.30;;;4.20;99.90;;;;;;5070976;28;20035;-66
2021/11/15 07:46:16;;;;;;;48.90;16.80;;;4.20;99.90;;;;;;5070210;28;20044;-64
2021/11/15 07:48:42;;;;;;;73.25;18.52;;;4.20;99.90;;;;;;5079540;28;20040;-64
2021/11/15 07:51:08;;;;;;;57.60;18.98;;;4.20;99.90;;;;;;5090955;28;20044;-64
2021/11/15 07:53:36;;;;;;;54.83;18.33;;;4.20;99.90;;;;;;5090914;28;20039;-64
2021/11/15 07:56:05;;;;;;;66.53;18.67;;;4.10;99.90;;;;;;5089341;28;20135;-64
2021/11/15 07:58:31;;;;;;;46.13;18.25;;;4.10;99.90;;;;;;5090900;28;20036;-63
2021/11/15 08:00:57;;;;;;;59.63;18.25;;;4.10;99.90;;;;;;5086744;28;20535;-63
2021/11/15 08:03:22;;;;;;;112.75;24.00;;;4.00;99.90;;;;;;5074800;28;20499;-64
2021/11/15 08:05:48;;;;;;;64.65;21.05;;;4.00;99.90;;;;;;5078750;28;20067;-65
2021/11/15 08:08:13;;;;;;;51.03;18.38;;;3.90;99.90;;;;;;5070748;28;20032;-65
2021/11/15 08:10:39;;;;;;;57.25;18.80;;;3.90;99.90;;;;;;5069469;28;20040;-65
2021/11/15 08:13:04;;;;;;;44.50;17.17;;;3.90;99.90;;;;;;5069764;28;20044;-66
2021/11/15 08:15:30;;;;;;;74.65;19.65;;;3.90;99.90;;;;;;5069285;28;20059;-66
2021/11/15 08:17:59;;;;;;;38.38;17.58;;;3.90;99.90;;;;;;5069443;28;20036;-66
2021/11/15 08:20:28;;;;;;;43.45;17.58;;;3.80;99.90;;;;;;5070096;28;20067;-66
2021/11/15 08:22:57;;;;;;;45.88;17.80;;;3.80;99.90;;;;;;5075148;28;20520;-66
2021/11/15 08:25:49;;;;;;;33.75;15.10;;;3.80;99.90;;;;;;5073312;28;20123;-66
2021/11/15 08:28:15;;;;;;;56.90;18.90;;;3.90;99.90;;;;;;5069578;28;20056;-65
2021/11/15 08:30:41;;;;;;;34.05;14.52;;;3.90;99.90;;;;;;5069515;28;20373;-65
2021/11/15 08:33:10;;;;;;;40.55;15.73;;;3.90;99.90;;;;;;5069964;28;20052;-66
2021/11/15 08:35:36;;;;;;;34.45;15.20;;;3.90;99.90;;;;;;5069441;28;20447;-65
2021/11/15 08:38:16;;;;;;;129.23;58.08;;;3.90;99.90;;;;;;5068856;28;20044;-66
2021/11/15 08:40:47;;;;;;;41.67;18.50;;;3.90;99.90;;;;;;5077877;28;20546;-65
2021/11/15 08:43:15;;;;;;;40.00;16.65;;;3.90;99.90;;;;;;5069839;28;20544;-64
2021/11/15 08:45:40;;;;;;;60.10;17.58;;;3.90;99.90;;;;;;5068707;28;20445;-65
2021/11/15 08:48:06;;;;;;;36.08;15.05;;;3.90;99.90;;;;;;5073278;28;20567;-65
2021/11/15 08:50:32;;;;;;;56.40;18.73;;;3.90;99.90;;;;;;5089543;28;20043;-65
2021/11/15 08:52:58;;;;;;;36.67;15.68;;;3.90;99.90;;;;;;5089960;28;20040;-65
2021/11/15 08:55:25;;;;;;;51.80;16.83;;;3.90;99.90;;;;;;5089175;28;20085;-65
2021/11/15 08:57:52;;;;;;;48.42;15.57;;;3.90;99.90;;;;;;5088975;28;20214;-65
2021/11/15 09:00:17;;;;;;;43.15;15.27;;;3.90;99.90;;;;;;5089017;28;20436;-65
2021/11/15 09:02:44;;;;;;;55.28;15.52;;;;;;;;;;5082463;28;20067;-65
2021/11/15 09:05:10;;;;;;;38.70;15.02;;;;;;;;;;5069410;28;20078;-65
2021/11/15 09:07:37;;;;;;;60.30;16.20;;;;;;;;;;5069997;28;20519;-67
2021/11/15 09:10:04;;;;;;;56.13;15.55;;;;;;;;;;5078772;28;20081;-65
2021/11/15 09:12:30;;;;;;;35.58;14.60;;;;;;;;;;5073683;28;20036;-65
2021/11/15 09:14:57;;;;;;;43.92;14.65;;;;;;;;;;5069742;28;20113;-64
2021/11/15 09:17:23;;;;;;;46.17;15.68;;;;;;;;;;5072951;28;20182;-65
2021/11/15 09:19:50;;;;;;;72.47;16.20;;;;;;;;;;5071546;28;20041;-65
2021/11/15 09:22:16;;;;;;;73.43;15.63;;;;;;;;;;5070931;28;20499;-65
2021/11/15 09:24:43;;;;;;;78.85;18.65;;;;;;;;;;5068892;28;20090;-65
2021/11/15 09:27:13;;;;;;;49.00;15.07;;;;;;;;;;5069701;28;20036;-65
2021/11/15 09:29:40;;;;;;;41.88;15.38;;;;;;;;;;5070041;28;20039;-65
2021/11/15 09:32:06;;;;;;;57.53;17.10;;;;;;;;;;5069416;28;20524;-65
2021/11/15 09:34:32;;;;;;;72.13;18.38;;;;;;;;;;5069809;28;20090;-65
2021/11/15 09:36:58;;;;;;;85.60;18.67;;;;;;;;;;5069441;28;20045;-65
2021/11/15 09:39:25;;;;;;;74.15;17.95;;;;;;;;;;5081179;28;20037;-66
2021/11/15 09:41:51;;;;;;;63.10;16.75;;;;;;;;;;5080917;28;20040;-65
2021/11/15 09:44:17;;;;;;;49.10;17.08;;;;;;;;;;5089875;28;20481;-65
2021/11/15 09:46:45;;;;;;;54.03;16.10;;;;;;;;;;5088908;28;20135;-65
2021/11/15 09:49:12;;;;;;;48.50;16.10;;;;;;;;;;5077235;28;20037;-65
2021/11/15 09:51:42;;;;;;;89.03;18.83;;;;;;;;;;5068950;28;20064;-65
2021/11/15 09:54:09;;;;;;;64.70;15.23;;;;;;;;;;5069030;28;20040;-65
2021/11/15 09:56:35;;;;;;;56.05;16.60;;;;;;;;;;5068873;28;20178;-65
2021/11/15 09:59:01;;;;;;;50.50;17.10;;;;;;;;;;5068898;28;20043;-65
2021/11/15 10:01:27;;;;;;;85.88;19.38;;;;;;;;;;5068839;28;20603;-65
2021/11/15 10:03:53;;;;;;;49.10;17.52;;;;;;;;;;5067924;28;20040;-65
2021/11/15 10:06:23;;;;;;;42.20;16.25;;;;;;;;;;5068790;28;20048;-65
2021/11/15 10:08:50;;;;;;;66.40;19.45;;;;;;;;;;5081829;28;20062;-65
2021/11/15 10:11:17;;;;;;;48.10;17.30;;;;;;;;;;5073363;28;20070;-65
2021/11/15 10:13:43;;;;;;;37.05;15.98;;;;;;;;;;5068241;28;20037;-64
2021/11/15 10:16:23;;;;;;;44.97;17.83;;;;;;;;;;5067484;28;20044;-65
2021/11/15 10:19:00;;;;;;;50.58;18.83;;;;;;;;;;5077109;28;20032;-65
2021/11/15 10:21:29;;;;;;;44.55;17.33;;;;;;;;;;5081727;28;20040;-65
2021/11/15 10:23:56;;;;;;;41.67;15.95;;;;;;;;;;5074043;28;20515;-65
2021/11/15 10:26:30;;;;;;;49.03;18.45;;;;;;;;;;5097160;28;20040;-65
2021/11/15 10:28:59;;;;;;;51.30;18.98;;;;;;;;;;5070825;28;20062;-65
2021/11/15 10:31:30;;;;;;;50.45;20.17;;;;;;;;;;5079474;28;20043;-65
2021/11/15 10:33:57;;;;;;;54.33;19.23;;;;;;;;;;5079455;28;20048;-65
2021/11/15 10:36:42;;;;;;;39.28;17.80;;;;;;;;;;5100195;28;20566;-65
2021/11/15 10:39:09;;;;;;;43.15;19.05;;;;;;;;;;5079283;28;20519;-65
2021/11/15 10:41:35;;;;;;;40.45;16.75;;;;;;;;;;5076784;28;20569;-65
2021/11/15 10:44:01;;;;;;;37.92;16.48;;;;;;;;;;5088462;28;20623;-64
2021/11/15 10:46:31;;;;;;;45.13;19.25;;;;;;;;;;5092790;28;20048;-66
2021/11/15 10:48:58;;;;;;;48.17;19.40;;;;;;;;;;5094165;28;20044;-65
2021/11/15 10:52:03;;;;;;;38.00;17.33;;;;;;;;;;5094108;28;20036;-65
2021/11/15 10:54:59;;;;;;;49.08;19.33;;;;;;;;;;5022718;28;20045;-65
2021/11/15 10:57:28;;;;;;;36.28;17.02;;;;;;;;;;5092147;28;20064;-65
2021/11/15 11:00:06;;;;;;;35.17;16.23;;;;;;;;;;5088824;28;20423;-65
2021/11/15 11:02:33;;;;;;;37.13;17.45;;;;;;;;;;5088421;28;20066;-65
2021/11/15 11:05:05;;;;;;;40.00;16.75;;;;;;;;;;5088291;28;20149;-65
2021/11/15 11:07:31;;;;;;;34.30;16.17;;;;;;;;;;5080179;28;20052;-64
2021/11/15 11:10:01;;;;;;;37.47;17.58;;;;;;;;;;5082908;28;20081;-65
2021/11/15 11:12:34;;;;;;;40.78;17.08;;;;;;;;;;5096275;28;20040;-63
2021/11/15 11:15:22;;;;;;;34.45;16.90;;;;;;;;;;5108639;28;20043;-65
2021/11/15 11:18:16;;;;;;;33.53;15.90;;;;;;;;;;5095667;28;20055;-64
2021/11/15 11:23:33;;;;;;;36.33;17.05;;;;;;;;;;5087276;28;20100;-65
2021/11/15 11:26:15;;;;;;;31.55;15.40;;;;;;;;;;5067160;28;20048;-65
2021/11/15 11:28:43;;;;;;;30.90;15.13;;;;;;;;;;5068056;28;20465;-65
2021/11/15 11:31:10;;;;;;;27.08;14.35;;;;;;;;;;5066008;28;20036;-65
2021/11/15 11:33:36;;;;;;;32.75;15.05;;;;;;;;;;5068637;28;20045;-65
2021/11/15 11:36:04;;;;;;;33.85;16.23;;;;;;;;;;5067107;28;20041;-65
2021/11/15 11:38:30;;;;;;;31.55;15.85;;;;;;;;;;5074818;28;20037;-65
2021/11/15 11:40:57;;;;;;;27.75;14.88;;;;;;;;;;5066981;28;20062;-65
2021/11/15 11:43:23;;;;;;;30.17;14.68;;;;;;;;;;5067926;28;20043;-65
2021/11/15 11:45:49;;;;;;;35.35;15.80;;;;;;;;;;5066564;28;20634;-64
2021/11/15 11:48:16;;;;;;;28.90;15.65;;;;;;;;;;5076988;28;20032;-65
2021/11/15 11:50:46;;;;;;;30.67;15.52;;;;;;;;;;5095136;28;20040;-65
2021/11/15 11:53:12;;;;;;;32.47;15.82;;;;;;;;;;5100204;28;20032;-65
2021/11/15 11:55:42;;;;;;;32.72;16.08;;;;;;;;;;5108627;28;20043;-65
2021/11/15 11:58:25;;;;;;;34.40;15.65;;;;;;;;;;5106771;28;20068;-65
2021/11/15 12:00:54;;;;;;;32.97;16.55;;;;;;;;;;5076142;28;20456;-64
2021/11/15 12:03:21;;;;;;;46.65;22.77;;;;;;;;;;5066660;28;20059;-65
2021/11/15 12:05:49;;;;;;;44.53;22.00;;;;;;;;;;5067019;28;20053;-64
2021/11/15 12:08:15;;;;;;;34.88;19.17;;;;;;;;;;5074661;28;20606;-65
2021/11/15 12:10:57;;;;;;;34.72;18.48;;;;;;;;;;5079864;28;20036;-65
2021/11/15 12:13:24;;;;;;;50.75;25.95;;;;;;;;;;5085136;28;20119;-65
2021/11/15 12:15:50;;;;;;;39.97;22.88;;;;;;;;;;5082074;28;20032;-64
2021/11/15 12:18:22;;;;;;;34.13;18.10;;;;;;;;;;5073428;28;20045;-64
2021/11/15 12:21:00;;;;;;;42.15;21.45;;;;;;;;;;5071410;28;20393;-64
2021/11/15 12:23:27;;;;;;;38.20;18.05;;;;;;;;;;5071476;28;20449;-64
2021/11/15 12:26:03;;;;;;;34.10;17.48;;;;;;;;;;5076063;28;20043;-63
2021/11/15 12:28:30;;;;;;;31.98;16.70;;;;;;;;;;5088040;28;20040;-63
2021/11/15 12:30:58;;;;;;;31.60;17.02;;;;;;;;;;5087961;28;20040;-63
2021/11/15 12:33:25;;;;;;;30.92;16.02;;;;;;;;;;5096192;28;20124;-64
2021/11/15 12:35:56;;;;;;;29.75;16.38;;;;;;;;;;5094814;28;20038;-63
2021/11/15 12:38:37;;;;;;;34.28;17.85;;;;;;;;;;5089956;28;20048;-63
2021/11/15 12:41:04;;;;;;;29.27;16.05;;;;;;;;;;5089609;28;20031;-64
2021/11/15 12:43:31;;;;;;;36.67;18.50;;;;;;;;;;5102360;27;20047;-64
2021/11/15 12:46:08;;;;;;;32.67;18.17;;;;;;;;;;5111036;28;20085;-63
2021/11/15 12:48:40;;;;;;;37.38;18.25;;;;;;;;;;5105111;28;20499;-64
2021/11/15 12:51:10;;;;;;;33.20;15.30;;;;;;;;;;5092599;28;20044;-64
2021/11/15 12:53:37;;;;;;;33.80;16.40;;;;;;;;;;5091012;28;20040;-64
2021/11/15 12:56:03;;;;;;;30.48;15.55;;;;;;;;;;5090082;28;20047;-64
2021/11/15 12:58:29;;;;;;;25.55;16.23;;;;;;;;;;5090706;28;20574;-64
2021/11/15 13:00:56;;;;;;;27.35;14.85;;;;;;;;;;5084247;28;20107;-64
2021/11/15 13:03:22;;;;;;;32.50;16.75;;;;;;;;;;5070759;28;20048;-64
2021/11/15 13:05:50;;;;;;;34.83;17.02;;;;;;;;;;5070406;28;20078;-64
2021/11/15 13:08:16;;;;;;;33.50;17.05;;;;;;;;;;5077709;28;20071;-63